Time;durP1;ratioP1;P1;durP2;ratioP2;P2;SDS_P1;SDS_P2;PMS_P1;PMS_P2;Temp;Humidity;BMP_temperature;BMP_pressure;BME280_temperature;BME280_humidity;BME280_pressure;Samples;Min_cycle;Max_cycle;Signal;HPM_P1;HPM_P2
2023/01/16 00:00:47;;;;;;;3.60;1.40;;;;;;;4.33;99.15;99560.88;5013084;28;20062;-66
2023/01/16 00:03:12;;;;;;;3.33;1.70;;;;;;;4.32;98.77;99548.63;5016696;28;20030;-66
2023/01/16 00:05:37;;;;;;;2.63;1.38;;;;;;;4.24;98.54;99542.44;5015376;28;20108;-66
2023/01/16 00:08:03;;;;;;;2.75;1.58;;;;;;;4.24;98.28;99540.69;5016648;28;20420;-66
2023/01/16 00:10:28;;;;;;;3.22;1.60;;;;;;;4.22;98.59;99541.50;5016503;28;20132;-66
2023/01/16 00:12:54;;;;;;;2.83;1.75;;;;;;;4.17;98.54;99533.59;5016383;28;20476;-66
2023/01/16 00:15:19;;;;;;;2.22;1.58;;;;;;;4.14;98.70;99536.16;5016292;28;20037;-66
2023/01/16 00:17:45;;;;;;;4.97;1.80;;;;;;;4.12;98.82;99537.00;5016661;28;20491;-65
2023/01/16 00:20:10;;;;;;;3.05;1.75;;;;;;;4.07;98.77;99530.81;5016358;28;20033;-65
2023/01/16 00:22:36;;;;;;;5.85;1.90;;;;;;;4.06;98.90;99529.94;5016246;28;20030;-66
2023/01/16 00:25:01;;;;;;;7.00;2.25;;;;;;;4.01;99.27;99523.75;4998598;28;20034;-66
2023/01/16 00:27:26;;;;;;;4.18;2.10;;;;;;;3.98;99.39;99522.00;5016243;28;20076;-66
2023/01/16 00:29:52;;;;;;;5.05;1.95;;;;;;;3.95;99.37;99516.72;5016183;28;20114;-66
2023/01/16 00:32:17;;;;;;;5.13;1.90;;;;;;;3.94;98.87;99517.56;4998670;28;20083;-66
2023/01/16 00:34:42;;;;;;;4.78;2.00;;;;;;;3.88;99.93;99520.06;5016039;28;20053;-65
2023/01/16 00:37:08;;;;;;;7.50;2.10;;;;;;;3.87;100.00;99520.94;5016113;28;20497;-65
2023/01/16 00:39:34;;;;;;;4.95;2.00;;;;;;;3.84;99.89;99520.88;5015919;28;20026;-64
2023/01/16 00:41:59;;;;;;;4.95;2.10;;;;;;;3.84;99.85;99518.25;5015508;28;20025;-67
2023/01/16 00:44:24;;;;;;;7.03;2.08;;;;;;;3.83;100.00;99513.03;5015904;28;20034;-64
2023/01/16 00:46:50;;;;;;;7.93;2.28;;;;;;;3.82;100.00;99501.69;5015977;28;20044;-64
2023/01/16 00:49:15;;;;;;;5.75;2.33;;;;;;;3.81;100.00;99510.34;5016011;28;20116;-64
2023/01/16 00:51:41;;;;;;;6.85;2.20;;;;;;;3.81;100.00;99501.66;5016077;28;20430;-64
2023/01/16 00:54:06;;;;;;;8.30;2.25;;;;;;;3.82;100.00;99512.16;5015630;28;20561;-64
2023/01/16 00:56:32;;;;;;;6.47;2.17;;;;;;;3.80;100.00;99492.94;4981865;28;20041;-65
2023/01/16 00:58:57;;;;;;;5.68;2.13;;;;;;;3.80;99.91;99492.94;5015694;28;20484;-64
2023/01/16 01:01:22;;;;;;;12.82;2.40;;;;;;;3.79;100.00;99482.47;5015575;28;20026;-65
2023/01/16 01:03:48;;;;;;;7.30;2.75;;;;;;;3.74;100.00;99478.06;5015522;28;20036;-64
2023/01/16 01:06:13;;;;;;;7.45;2.20;;;;;;;3.72;100.00;99468.41;5015496;28;20105;-64
2023/01/16 01:08:39;;;;;;;8.95;2.38;;;;;;;3.72;100.00;99461.44;5015471;28;20475;-64
2023/01/16 01:11:13;;;;;;;9.48;2.40;;;;;;;3.73;100.00;99464.97;5015294;28;20088;-65
2023/01/16 01:13:39;;;;;;;5.72;2.30;;;;;;;3.69;100.00;99455.31;5014037;28;20033;-64
2023/01/16 01:16:06;;;;;;;9.82;2.22;;;;;;;3.67;100.00;99462.25;5015378;28;20228;-64
2023/01/16 01:18:31;;;;;;;14.45;2.20;;;;;;;3.66;100.00;99465.72;5015299;28;20439;-64
2023/01/16 01:20:56;;;;;;;8.63;2.05;;;;;;;3.66;100.00;99445.69;5015065;28;20030;-64
2023/01/16 01:23:22;;;;;;;8.63;2.20;;;;;;;3.63;100.00;99453.47;5015259;28;20026;-64
2023/01/16 01:25:48;;;;;;;6.80;2.00;;;;;;;3.63;100.00;99444.75;5015103;28;20030;-64
2023/01/16 01:28:14;;;;;;;7.70;2.05;;;;;;;3.58;100.00;99433.38;5015083;28;20034;-64
2023/01/16 01:30:39;;;;;;;6.13;2.00;;;;;;;3.56;100.00;99427.25;5014892;28;20360;-64
2023/01/16 01:33:05;;;;;;;7.53;1.83;;;;;;;3.52;100.00;99428.94;4997345;28;20034;-64
2023/01/16 01:35:30;;;;;;;7.15;2.20;;;;;;;3.51;100.00;99424.53;5014965;28;20026;-64
2023/01/16 01:37:55;;;;;;;5.38;2.10;;;;;;;3.48;100.00;99416.69;5014862;28;20480;-64
2023/01/16 01:40:21;;;;;;;9.77;2.17;;;;;;;3.46;100.00;99410.53;5015183;28;20033;-64
2023/01/16 01:42:51;;;;;;;3.90;1.80;;;;;;;3.44;100.00;99405.31;5014236;28;20101;-64
2023/01/16 01:45:24;;;;;;;7.45;2.15;;;;;;;3.42;100.00;99393.94;5014824;28;20483;-64
2023/01/16 01:47:54;;;;;;;9.45;2.25;;;;;;;3.41;100.00;99386.09;5014675;28;20125;-64
2023/01/16 01:50:28;;;;;;;5.40;2.05;;;;;;;3.39;100.00;99388.69;5014962;28;20037;-64
2023/01/16 01:52:57;;;;;;;9.82;2.15;;;;;;;3.38;100.00;99379.09;5015013;28;20026;-64
2023/01/16 01:55:22;;;;;;;4.45;2.00;;;;;;;3.40;100.00;99373.91;5014615;28;20037;-64
2023/01/16 01:57:56;;;;;;;10.48;2.05;;;;;;;3.38;100.00;99365.16;5014466;28;20026;-64
2023/01/16 02:00:23;;;;;;;7.25;2.17;;;;;;;3.38;100.00;99357.31;5014483;28;20504;-63
2023/01/16 02:02:56;;;;;;;7.40;2.20;;;;;;;3.33;100.00;99349.41;5014456;28;20096;-63
2023/01/16 02:05:26;;;;;;;6.50;1.80;;;;;;;3.32;100.00;99352.91;5014390;28;20030;-64
2023/01/16 02:07:53;;;;;;;9.98;2.40;;;;;;;3.29;100.00;99336.31;5014441;28;20112;-64
2023/01/16 02:10:27;;;;;;;9.15;2.40;;;;;;;3.30;100.00;99332.81;5014269;28;20026;-64
2023/01/16 02:12:53;;;;;;;8.75;2.42;;;;;;;3.24;100.00;99311.00;5014210;28;20376;-64
2023/01/16 02:15:22;;;;;;;6.43;2.10;;;;;;;3.30;100.00;99325.91;5014100;28;20076;-64
2023/01/16 02:20:57;;;;;;;7.95;2.30;;;;;;;3.32;100.00;99320.69;5014467;28;20045;-64
2023/01/16 02:23:56;;;;;;;7.07;2.28;;;;;;;3.37;100.00;99319.03;5013395;28;20471;-63
2023/01/16 02:26:47;;;;;;;12.45;2.55;;;;;;;3.37;99.70;99309.44;4994958;28;20046;-65
2023/01/16 02:29:28;;;;;;;9.00;2.80;;;;;;;3.38;99.62;99307.72;5013366;28;20022;-63
2023/01/16 02:32:09;;;;;;;5.65;2.00;;;;;;;3.40;99.94;99303.41;4996390;28;20036;-63
2023/01/16 02:35:20;;;;;;;6.97;2.08;;;;;;;3.42;99.48;99296.47;5014118;28;20022;-64
2023/01/16 02:37:54;;;;;;;6.70;2.03;;;;;;;3.37;99.63;99278.13;5003568;28;20069;-63
2023/01/16 02:40:58;;;;;;;4.75;2.00;;;;;;;3.37;99.90;99267.69;5013732;28;20038;-64
2023/01/16 02:43:32;;;;;;;10.27;2.50;;;;;;;3.38;99.67;99261.59;5013342;28;20065;-64
2023/01/16 02:46:19;;;;;;;6.45;2.20;;;;;;;3.39;99.15;99241.63;5013583;28;20025;-63
2023/01/16 02:49:16;;;;;;;11.75;2.13;;;;;;;3.39;99.63;99242.50;5013567;28;20092;-63
2023/01/16 02:51:53;;;;;;;8.05;2.20;;;;;;;3.38;98.77;99221.56;5013641;28;20026;-63
2023/01/16 02:54:38;;;;;;;10.30;2.22;;;;;;;3.35;99.35;99213.72;5013514;28;20156;-63
2023/01/16 02:57:10;;;;;;;6.93;2.03;;;;;;;3.33;98.75;99200.63;5013579;28;20459;-63
2023/01/16 02:59:36;;;;;;;4.97;1.93;;;;;;;3.33;99.17;99195.41;5013516;28;20034;-64
2023/01/16 03:02:03;;;;;;;8.32;2.30;;;;;;;3.31;98.87;99191.91;5013687;28;20845;-63
2023/01/16 03:04:37;;;;;;;5.65;2.13;;;;;;;3.31;99.68;99196.25;5013126;28;20033;-63
2023/01/16 03:07:31;;;;;;;5.68;1.80;;;;;;;3.30;99.02;99182.31;5013480;28;20033;-63
2023/01/16 03:10:02;;;;;;;7.68;1.98;;;;;;;3.27;99.66;99179.66;5013457;28;20018;-63
2023/01/16 03:13:00;;;;;;;8.18;1.73;;;;;;;3.25;99.56;99165.69;4995635;28;20411;-63
2023/01/16 03:15:50;;;;;;;6.45;1.80;;;;;;;3.25;99.28;99166.59;5013402;28;20395;-63
2023/01/16 03:18:41;;;;;;;4.93;1.90;;;;;;;3.23;99.31;99162.22;5013360;28;20077;-63
2023/01/16 03:21:18;;;;;;;5.38;1.50;;;;;;;3.18;98.44;99149.09;5013035;28;20084;-63
2023/01/16 03:23:49;;;;;;;5.07;1.67;;;;;;;3.15;99.33;99130.78;5013226;28;20457;-63
2023/01/16 03:26:18;;;;;;;5.97;1.63;;;;;;;3.13;99.01;99126.44;5013188;28;20104;-63
2023/01/16 03:28:58;;;;;;;9.75;2.47;;;;;;;3.07;98.91;99113.28;5013096;28;20445;-63
2023/01/16 03:31:37;;;;;;;3.20;1.40;;;;;;;3.07;99.10;99121.97;5013452;28;20105;-63
2023/01/16 03:34:23;;;;;;;4.50;1.60;;;;;;;3.07;98.76;99111.53;5013148;28;20029;-63
2023/01/16 03:37:27;;;;;;;5.80;1.80;;;;;;;3.04;99.81;99097.56;5014642;28;20037;-63
2023/01/16 03:39:59;;;;;;;3.42;1.60;;;;;;;3.03;99.16;99091.50;5017178;28;20033;-63
2023/01/16 03:42:29;;;;;;;;;;;;;;;3.02;99.76;99097.56;5017174;28;20069;-63
2023/01/16 03:45:00;;;;;;;4.32;2.08;;;;;;;2.99;100.00;99081.88;5017002;28;20001;-63
2023/01/16 03:47:31;;;;;;;5.10;2.20;;;;;;;2.95;100.00;99078.34;5017155;28;20038;-63
2023/01/16 03:50:02;;;;;;;8.23;1.80;;;;;;;2.90;100.00;99069.59;5016898;28;20492;-63
2023/01/16 03:52:37;;;;;;;4.83;1.90;;;;;;;2.85;100.00;99053.00;5017050;28;20025;-63
2023/01/16 03:55:05;;;;;;;5.18;1.77;;;;;;;2.85;100.00;99044.31;5016869;28;20049;-63
2023/01/16 03:57:36;;;;;;;5.20;1.92;;;;;;;2.86;100.00;99033.88;4999148;28;20434;-63
2023/01/16 04:00:03;;;;;;;6.20;1.80;;;;;;;2.85;100.00;99031.28;5016865;28;20168;-64
2023/01/16 04:02:51;;;;;;;3.35;1.80;;;;;;;2.83;100.00;99014.75;5016571;28;20076;-63
2023/01/16 04:05:44;;;;;;;10.50;2.30;;;;;;;2.84;100.00;99008.66;5016710;28;20504;-64
2023/01/16 04:08:16;;;;;;;5.38;2.15;;;;;;;2.83;100.00;99001.69;5000189;28;20026;-63
2023/01/16 04:10:46;;;;;;;6.90;2.08;;;;;;;2.79;100.00;98994.69;5016677;28;20037;-63
2023/01/16 04:13:16;;;;;;;5.90;2.03;;;;;;;2.81;100.00;98979.91;5016504;28;20037;-63
2023/01/16 04:15:45;;;;;;;9.48;2.85;;;;;;;2.78;100.00;98985.09;5016509;28;20061;-63
2023/01/16 04:18:11;;;;;;;6.07;2.33;;;;;;;2.80;100.00;98976.44;5016451;28;20044;-63
2023/01/16 04:20:38;;;;;;;7.57;2.50;;;;;;;2.80;100.00;98963.41;5016361;28;20471;-63
2023/01/16 04:23:03;;;;;;;6.78;2.50;;;;;;;2.83;100.00;98959.97;5016390;28;20029;-63
2023/01/16 04:25:29;;;;;;;12.25;2.63;;;;;;;2.83;100.00;98954.75;5016320;28;20038;-63
2023/01/16 04:27:54;;;;;;;5.60;2.30;;;;;;;2.78;100.00;98927.72;5016235;28;20029;-63
2023/01/16 04:30:20;;;;;;;7.10;2.22;;;;;;;2.80;100.00;98920.81;5016163;28;20034;-63
2023/01/16 04:32:45;;;;;;;6.68;2.03;;;;;;;2.88;100.00;98914.81;5016095;28;20109;-63
2023/01/16 04:35:11;;;;;;;6.43;2.38;;;;;;;2.91;100.00;98913.94;5016036;28;20472;-63
2023/01/16 04:37:36;;;;;;;7.72;2.30;;;;;;;2.94;100.00;98907.03;5016263;28;20022;-63
2023/01/16 04:40:02;;;;;;;9.25;2.30;;;;;;;2.95;100.00;98890.50;5016092;28;20057;-63
2023/01/16 04:42:27;;;;;;;11.05;2.30;;;;;;;2.99;100.00;98881.84;5015469;28;20050;-63
2023/01/16 04:44:53;;;;;;;6.72;2.17;;;;;;;3.05;100.00;98875.84;5016016;28;20088;-63
2023/01/16 04:47:18;;;;;;;7.68;2.38;;;;;;;3.05;100.00;98870.63;5015126;28;20368;-63
2023/01/16 04:49:43;;;;;;;7.90;2.08;;;;;;;3.10;100.00;98849.78;5014967;28;20030;-63
2023/01/16 04:52:12;;;;;;;6.82;2.20;;;;;;;3.11;100.00;98844.56;5015802;28;20030;-63
2023/01/16 04:54:37;;;;;;;6.10;2.00;;;;;;;3.14;100.00;98828.94;5015869;28;20030;-63
2023/01/16 04:57:03;;;;;;;6.28;2.30;;;;;;;3.20;100.00;98821.16;5015892;28;20038;-63
2023/01/16 04:59:29;;;;;;;7.63;2.15;;;;;;;3.23;100.00;98815.97;5015765;28;20038;-63
2023/01/16 05:01:54;;;;;;;7.22;2.33;;;;;;;3.29;100.00;98814.25;5015596;28;20030;-63
2023/01/16 05:04:20;;;;;;;5.32;1.77;;;;;;;3.28;100.00;98797.72;5015602;28;20073;-63
2023/01/16 05:06:46;;;;;;;5.70;2.05;;;;;;;3.33;100.00;98798.63;4998060;28;20049;-63
2023/01/16 05:09:11;;;;;;;7.70;2.28;;;;;;;3.37;100.00;98794.28;5015432;28;20033;-63
2023/01/16 05:11:37;;;;;;;5.82;2.20;;;;;;;3.37;100.00;98776.91;5014964;28;20395;-63
2023/01/16 05:14:07;;;;;;;3.50;1.92;;;;;;;3.44;100.00;98773.47;5015228;28;20054;-63
2023/01/16 05:16:34;;;;;;;7.80;2.40;;;;;;;3.46;100.00;98761.28;5015241;28;20535;-63
2023/01/16 05:18:59;;;;;;;7.72;2.28;;;;;;;3.49;100.00;98756.09;5015254;28;20037;-63
2023/01/16 05:21:24;;;;;;;11.48;2.53;;;;;;;3.51;100.00;98740.41;5015273;28;20391;-63
2023/01/16 05:23:50;;;;;;;7.47;2.45;;;;;;;3.55;100.00;98741.31;5015118;28;20026;-63
2023/01/16 05:26:15;;;;;;;7.28;1.90;;;;;;;3.58;100.00;98738.72;5015078;28;20132;-63
2023/01/16 05:28:41;;;;;;;3.45;1.85;;;;;;;3.60;100.00;98724.81;5014981;28;20026;-63
2023/01/16 05:31:06;;;;;;;7.55;2.58;;;;;;;3.61;100.00;98713.50;5014984;28;20030;-63
2023/01/16 05:33:31;;;;;;;4.95;2.08;;;;;;;3.65;100.00;98704.81;5015003;28;20026;-63
2023/01/16 05:35:57;;;;;;;6.70;2.03;;;;;;;3.66;100.00;98688.28;4997560;28;20399;-63
2023/01/16 05:38:23;;;;;;;4.93;1.90;;;;;;;3.69;100.00;98690.91;5014861;28;20464;-63
2023/01/16 05:40:48;;;;;;;10.60;2.03;;;;;;;3.71;100.00;98680.44;5014908;28;20034;-63
2023/01/16 05:43:14;;;;;;;7.00;2.10;;;;;;;3.72;100.00;98664.78;5014191;28;20119;-63
2023/01/16 05:45:40;;;;;;;6.10;2.08;;;;;;;3.75;100.00;98661.31;5014905;28;20043;-63
2023/01/16 05:48:06;;;;;;;9.93;2.08;;;;;;;3.79;100.00;98642.16;4997071;28;20037;-63
2023/01/16 05:50:31;;;;;;;5.43;1.70;;;;;;;3.82;100.00;98631.72;5014524;28;20018;-63
2023/01/16 05:52:57;;;;;;;3.70;1.70;;;;;;;3.81;100.00;98624.75;5014553;28;20037;-63
2023/01/16 05:55:23;;;;;;;4.78;2.00;;;;;;;3.84;100.00;98621.28;5014455;28;20030;-64
2023/01/16 05:57:48;;;;;;;7.43;2.03;;;;;;;3.83;99.85;98622.16;5014500;28;20388;-63
2023/01/16 06:00:14;;;;;;;5.95;1.88;;;;;;;3.88;99.18;98618.66;5014186;28;20061;-63
2023/01/16 06:02:39;;;;;;;5.53;1.70;;;;;;;3.90;99.51;98605.63;5014438;28;20030;-63
2023/01/16 06:05:05;;;;;;;5.95;1.80;;;;;;;3.92;99.10;98603.88;5014366;28;20042;-63
2023/01/16 06:07:31;;;;;;;7.55;2.10;;;;;;;3.94;98.98;98591.66;5014450;28;20495;-63
2023/01/16 06:09:56;;;;;;;3.80;1.60;;;;;;;3.97;99.00;98591.69;4996840;28;20038;-64
2023/01/16 06:12:21;;;;;;;5.13;1.65;;;;;;;3.99;98.83;98590.81;5014167;28;20104;-64
2023/01/16 06:14:47;;;;;;;3.95;1.80;;;;;;;4.01;98.86;98598.66;5014149;28;20034;-63
2023/01/16 06:17:16;;;;;;;5.72;1.80;;;;;;;4.03;98.66;98586.47;5014154;28;20391;-64
2023/01/16 06:19:43;;;;;;;5.68;1.70;;;;;;;4.07;98.53;98575.16;5014137;28;20022;-64
2023/01/16 06:22:09;;;;;;;6.25;1.70;;;;;;;4.06;98.89;98576.00;5014043;28;20034;-65
2023/01/16 06:24:34;;;;;;;5.75;1.40;;;;;;;4.06;99.43;98568.16;5014054;28;20538;-65
2023/01/16 06:27:00;;;;;;;4.70;1.60;;;;;;;4.07;99.37;98551.63;5014025;28;20104;-65
2023/01/16 06:29:25;;;;;;;4.95;1.48;;;;;;;4.06;99.68;98560.31;5014282;28;20187;-65
2023/01/16 06:31:50;;;;;;;5.00;1.98;;;;;;;4.03;100.00;98564.72;5013897;28;20083;-65
2023/01/16 06:34:16;;;;;;;7.55;1.85;;;;;;;4.02;100.00;98542.91;5013826;28;20033;-65
2023/01/16 06:36:42;;;;;;;3.95;1.98;;;;;;;4.04;100.00;98543.78;5013820;28;20084;-64
2023/01/16 06:39:10;;;;;;;5.15;1.67;;;;;;;4.05;100.00;98529.84;5013978;28;20451;-65
2023/01/16 06:41:35;;;;;;;3.55;1.58;;;;;;;4.07;100.00;98528.13;5013895;28;20056;-65
2023/01/16 06:44:01;;;;;;;4.13;1.50;;;;;;;4.06;100.00;98521.13;5013361;28;20061;-65
2023/01/16 06:46:26;;;;;;;4.53;1.52;;;;;;;4.03;100.00;98502.00;5013957;28;20053;-65
2023/01/16 06:48:52;;;;;;;4.93;1.75;;;;;;;4.03;100.00;98489.78;5013683;28;20030;-65
2023/01/16 06:51:17;;;;;;;4.90;1.70;;;;;;;4.02;100.00;98485.41;5013868;28;20101;-65
2023/01/16 06:53:42;;;;;;;3.03;1.50;;;;;;;3.99;100.00;98470.63;5013525;28;20076;-66
2023/01/16 06:56:08;;;;;;;3.95;1.52;;;;;;;3.99;100.00;98460.19;5013467;28;20061;-66
2023/01/16 06:58:33;;;;;;;19.60;3.40;;;;;;;3.97;100.00;98440.13;4995880;28;20025;-65
2023/01/16 07:00:58;;;;;;;4.80;1.90;;;;;;;3.95;100.00;98429.69;5013348;28;20442;-65
2023/01/16 07:03:24;;;;;;;3.80;1.77;;;;;;;3.94;100.00;98420.13;5013701;28;20026;-66
2023/01/16 07:05:50;;;;;;;7.38;2.20;;;;;;;3.92;100.00;98418.38;5013377;28;20037;-65
2023/01/16 07:08:15;;;;;;;7.45;1.88;;;;;;;3.92;100.00;98411.41;5013641;28;20534;-66
2023/01/16 07:10:41;;;;;;;5.70;1.60;;;;;;;3.89;100.00;98402.72;4995063;28;20053;-66
2023/01/16 07:13:06;;;;;;;3.50;1.48;;;;;;;3.90;100.00;98381.81;5013333;28;20028;-66
2023/01/16 07:23:52;;;;;;;4.57;2.00;;;;;;;3.92;100.00;98346.09;5013426;28;20045;-66
2023/01/16 07:26:20;;;;;;;3.50;1.70;;;;;;;3.94;100.00;98333.91;5013248;28;20026;-66
2023/01/16 07:28:50;;;;;;;6.43;1.67;;;;;;;3.94;100.00;98333.91;5013116;28;20485;-66
2023/01/16 07:31:16;;;;;;;3.38;1.50;;;;;;;3.92;100.00;98325.19;5013057;28;20030;-66
2023/01/16 07:33:42;;;;;;;2.67;1.58;;;;;;;3.94;100.00;98320.84;4995320;28;20030;-66
2023/01/16 07:36:07;;;;;;;3.97;1.83;;;;;;;3.92;100.00;98309.53;5013090;28;20112;-66
2023/01/16 07:38:33;;;;;;;4.35;1.55;;;;;;;3.93;100.00;98313.00;5012937;28;20028;-66
2023/01/16 07:40:58;;;;;;;3.40;1.58;;;;;;;3.94;100.00;98304.28;5013250;28;20030;-66
2023/01/16 07:43:24;;;;;;;6.28;1.52;;;;;;;3.93;100.00;98310.38;5012612;28;20073;-66
2023/01/16 07:45:52;;;;;;;5.70;1.75;;;;;;;3.94;100.00;98299.06;5013151;28;20022;-66
2023/01/16 07:48:22;;;;;;;4.10;1.90;;;;;;;3.97;100.00;98280.78;5012895;28;20034;-67
2023/01/16 07:50:52;;;;;;;5.40;1.90;;;;;;;3.94;100.00;98278.16;5013139;28;20114;-66
2023/01/16 07:53:21;;;;;;;3.55;1.60;;;;;;;3.96;100.00;98265.97;5012807;28;20034;-65
2023/01/16 07:55:50;;;;;;;5.65;1.73;;;;;;;3.97;100.00;98267.72;5012713;28;20483;-66
2023/01/16 07:58:16;;;;;;;7.60;2.63;;;;;;;3.95;100.00;98272.09;5012783;28;20542;-66
2023/01/16 08:00:42;;;;;;;5.22;2.10;;;;;;;3.93;100.00;98258.16;5012817;28;20041;-67
2023/01/16 08:03:08;;;;;;;3.50;2.00;;;;;;;3.93;100.00;98248.56;4995390;28;20022;-66
2023/01/16 08:05:33;;;;;;;4.97;1.80;;;;;;;3.95;100.00;98240.72;5012794;28;20069;-66
2023/01/16 08:07:58;;;;;;;2.88;1.55;;;;;;;3.94;100.00;98231.13;5012739;28;20076;-67
2023/01/16 08:10:24;;;;;;;5.20;1.70;;;;;;;3.94;100.00;98218.97;5012713;28;20022;-66
2023/01/16 08:12:49;;;;;;;6.20;1.58;;;;;;;3.93;100.00;98214.59;5012472;28;20053;-66
2023/01/16 08:15:15;;;;;;;4.85;1.60;;;;;;;3.95;100.00;98209.38;5012825;28;20049;-66
2023/01/16 08:17:41;;;;;;;6.03;2.15;;;;;;;3.94;100.00;98205.91;5012672;28;20033;-66
2023/01/16 08:20:08;;;;;;;4.95;1.80;;;;;;;3.94;100.00;98199.78;5012716;28;20037;-66
2023/01/16 08:22:33;;;;;;;5.90;1.95;;;;;;;3.96;100.00;98188.47;5013770;28;20033;-67
2023/01/16 08:24:58;;;;;;;5.72;1.92;;;;;;;3.96;100.00;98178.00;5016308;28;20116;-67
2023/01/16 08:27:24;;;;;;;5.70;1.75;;;;;;;3.97;100.00;98165.81;5016358;28;20380;-67
2023/01/16 08:29:49;;;;;;;5.07;1.88;;;;;;;3.99;100.00;98182.38;5016198;28;20026;-67
2023/01/16 08:32:14;;;;;;;4.03;1.70;;;;;;;4.00;100.00;98161.44;4998647;28;20061;-67
2023/01/16 08:34:41;;;;;;;4.00;1.75;;;;;;;4.00;100.00;98153.59;5016081;28;20026;-67
2023/01/16 08:37:10;;;;;;;8.73;1.77;;;;;;;4.02;100.00;98137.91;5016112;28;20030;-66
2023/01/16 08:39:35;;;;;;;4.03;1.90;;;;;;;4.05;100.00;98137.03;5016064;28;20079;-67
2023/01/16 08:52:59;;;;;;;7.68;1.70;;;;;;;4.15;100.00;98130.84;4977041;28;20078;-66
2023/01/16 08:55:25;;;;;;;3.03;1.90;;;;;;;4.16;100.00;98124.78;4976518;28;20027;-66
2023/01/16 08:57:50;;;;;;;5.90;2.33;;;;;;;4.14;100.00;98126.50;4976807;28;20078;-66
2023/01/16 09:00:19;;;;;;;3.53;1.83;;;;;;;4.17;100.00;98129.09;4959300;28;20057;-66
2023/01/16 09:02:45;;;;;;;3.00;1.90;;;;;;;4.17;100.00;98123.88;4976526;28;20034;-66
2023/01/16 09:05:12;;;;;;;2.72;1.63;;;;;;;4.18;100.00;98123.88;4976820;28;20038;-66
2023/01/16 09:07:37;;;;;;;2.03;1.42;;;;;;;4.23;100.00;98124.69;4976675;28;20035;-67
2023/01/16 09:10:03;;;;;;;7.30;2.38;;;;;;;4.20;100.00;98123.88;4976277;28;20023;-65
2023/01/16 09:15:12;;;;;;;4.22;1.65;;;;;;;4.23;100.00;98115.97;4976536;28;20042;-66
2023/01/16 09:17:38;;;;;;;3.20;1.60;;;;;;;4.21;100.00;98115.16;4976188;28;20031;-67
2023/01/16 09:20:04;;;;;;;3.33;1.60;;;;;;;4.21;100.00;98113.41;4976152;28;20394;-66
2023/01/16 09:22:30;;;;;;;2.20;1.38;;;;;;;4.19;100.00;98101.19;4975941;28;20121;-66
2023/01/16 09:24:55;;;;;;;2.40;1.50;;;;;;;4.18;100.00;98097.72;4985459;28;20046;-66
2023/01/16 09:27:21;;;;;;;1.98;1.40;;;;;;;4.21;100.00;98113.41;4984145;28;20027;-66
2023/01/16 09:29:46;;;;;;;4.45;1.40;;;;;;;4.18;100.00;98095.13;4978413;28;20046;-66
2023/01/16 09:32:12;;;;;;;3.88;1.50;;;;;;;4.19;100.00;98091.63;4975808;28;20031;-66
2023/01/16 09:34:39;;;;;;;1.50;1.20;;;;;;;4.18;100.00;98094.25;4975163;28;20035;-66
2023/01/16 09:37:05;;;;;;;3.05;1.60;;;;;;;4.20;100.00;98095.13;4976140;28;20027;-66
2023/01/16 09:39:31;;;;;;;3.13;1.30;;;;;;;4.20;100.00;98087.28;4970378;28;20034;-66
2023/01/16 09:44:50;;;;;;;2.10;1.02;;;;;;;4.21;100.00;98079.41;4975932;28;20113;-65
2023/01/16 09:47:17;;;;;;;2.28;1.33;;;;;;;4.23;100.00;98087.22;4984512;28;20029;-66
2023/01/16 09:50:09;;;;;;;2.45;1.40;;;;;;;4.27;100.00;98084.56;4994913;28;20039;-67
2023/01/16 09:58:35;;;;;;;1.70;1.27;;;;;;;4.31;100.00;98081.94;4995323;28;20065;-67
2023/01/16 10:01:01;;;;;;;3.30;1.55;;;;;;;4.34;100.00;98063.63;4994950;28;20116;-68
2023/01/16 10:03:27;;;;;;;1.50;1.40;;;;;;;4.36;100.00;98065.34;4977407;28;20457;-67
2023/01/16 10:06:06;;;;;;;1.23;1.13;;;;;;;4.37;100.00;98064.47;4995051;28;20113;-66
2023/01/16 10:08:34;;;;;;;1.65;1.30;;;;;;;4.38;100.00;98063.59;4994743;28;20033;-66
2023/01/16 10:11:07;;;;;;;1.30;1.20;;;;;;;4.39;100.00;98051.38;4994690;28;20037;-66
2023/01/16 10:14:01;;;;;;;1.70;1.38;;;;;;;4.43;100.00;98048.72;4994590;28;20065;-66
2023/01/16 10:16:35;;;;;;;1.63;1.30;;;;;;;4.46;100.00;98045.22;4993014;28;20046;-66
2023/01/16 10:19:09;;;;;;;2.05;1.40;;;;;;;4.46;100.00;98025.16;4994460;28;20365;-66
2023/01/16 10:21:50;;;;;;;2.15;1.30;;;;;;;4.51;100.00;98028.59;4994215;28;20157;-66
2023/01/16 10:24:25;;;;;;;1.80;1.23;;;;;;;4.60;100.00;98017.16;4987490;28;20027;-65
2023/01/16 10:27:17;;;;;;;1.27;1.17;;;;;;;4.66;100.00;98009.25;4994353;28;20061;-66
2023/01/16 10:29:46;;;;;;;1.70;1.25;;;;;;;4.77;100.00;97996.06;4994490;28;20385;-65
2023/01/16 10:32:19;;;;;;;1.55;1.00;;;;;;;4.85;100.00;97998.59;4994327;28;20022;-65
2023/01/16 10:35:26;;;;;;;1.23;1.13;;;;;;;4.89;100.00;97995.03;4994295;28;20507;-65
2023/01/16 10:37:54;;;;;;;1.55;1.30;;;;;;;4.94;100.00;97993.22;4951068;28;20031;-65
2023/01/16 10:40:25;;;;;;;4.68;0.95;;;;;;;4.96;100.00;97994.06;4994111;28;20027;-64
2023/01/16 10:51:15;;;;;;;1.23;0.90;;;;;;;5.03;97.41;97972.16;4994124;28;20045;-65
2023/01/16 10:53:41;;;;;;;1.50;0.90;;;;;;;5.02;96.61;97971.31;4993363;28;20027;-65
2023/01/16 10:56:06;;;;;;;2.53;0.90;;;;;;;5.03;97.32;97959.09;4994132;28;20500;-65
2023/01/16 10:58:39;;;;;;;1.75;1.20;;;;;;;5.01;95.94;97945.16;4994164;28;20409;-66
2023/01/16 11:01:09;;;;;;;1.15;1.05;;;;;;;5.00;97.08;97959.97;4993859;28;20053;-65
2023/01/16 11:03:37;;;;;;;1.85;1.08;;;;;;;5.00;96.60;97935.56;4993646;28;20030;-65
2023/01/16 11:06:11;;;;;;;1.13;1.02;;;;;;;5.05;95.91;97938.13;4993852;28;20026;-65
2023/01/16 11:08:37;;;;;;;1.92;1.35;;;;;;;5.05;96.64;97925.03;4993755;28;20361;-65
2023/01/16 11:11:03;;;;;;;0.90;0.90;;;;;;;5.03;96.41;97932.91;4993682;28;20029;-65
2023/01/16 11:19:20;;;;;;;3.10;1.10;;;;;;;5.08;95.52;97909.31;4993954;28;20104;-65
2023/01/16 11:22:16;;;;;;;1.40;1.00;;;;;;;5.10;95.42;97905.78;4993875;28;20026;-65
2023/01/16 11:24:44;;;;;;;0.90;0.90;;;;;;;5.13;95.49;97892.63;4993844;28;20073;-65
2023/01/16 11:27:20;;;;;;;1.00;1.00;;;;;;;5.16;94.68;97884.75;4993499;28;20080;-65
2023/01/16 11:29:46;;;;;;;1.77;1.10;;;;;;;5.16;94.82;97873.41;4993739;28;20026;-65
2023/01/16 11:32:14;;;;;;;1.90;1.13;;;;;;;5.17;94.57;97878.59;4992900;28;20034;-65
2023/01/16 11:34:46;;;;;;;1.05;0.95;;;;;;;5.20;94.14;97865.47;4993525;28;20034;-64
2023/01/16 11:37:15;;;;;;;0.90;0.90;;;;;;;5.23;93.35;97870.69;4993349;28;20037;-64
2023/01/16 11:39:41;;;;;;;1.75;1.20;;;;;;;5.21;94.22;97848.88;4993116;28;20484;-64
2023/01/16 11:47:44;;;;;;;2.53;1.10;;;;;;;5.31;92.91;97846.13;4993569;28;20048;-65
2023/01/16 11:50:27;;;;;;;1.35;0.90;;;;;;;5.33;94.27;97833.88;4993448;28;20034;-64
2023/01/16 11:52:53;;;;;;;1.13;1.02;;;;;;;5.33;93.55;97826.88;4993488;28;20117;-64
2023/01/16 11:55:18;;;;;;;2.95;1.00;;;;;;;5.39;93.56;97820.66;4993091;28;20034;-64
2023/01/16 11:58:01;;;;;;;1.25;1.15;;;;;;;5.40;93.41;97823.28;5002176;28;20422;-64
2023/01/16 12:00:39;;;;;;;;;;;;;;;5.44;93.49;97814.47;4998001;28;20488;-64
2023/01/16 12:03:16;;;;;;;1.13;1.00;;;;;;;5.43;93.84;97819.72;4997107;28;19910;-64
2023/01/16 12:06:03;;;;;;;1.38;0.90;;;;;;;5.44;94.00;97814.47;4996945;28;20031;-64
2023/01/16 12:09:05;;;;;;;2.20;1.23;;;;;;;5.48;94.12;97800.44;4996956;28;20026;-65
2023/01/16 12:11:55;;;;;;;1.85;1.30;;;;;;;5.45;94.89;97783.91;4936797;29;20617;-65
2023/01/16 12:14:43;;;;;;;1.00;0.98;;;;;;;5.42;95.74;97789.19;4994091;28;20038;-65
2023/01/16 12:17:27;;;;;;;1.35;1.10;;;;;;;5.42;95.99;97783.97;4996888;28;20027;-65
2023/01/16 12:20:05;;;;;;;1.70;1.20;;;;;;;5.42;95.77;97774.34;4996879;28;20081;-66
2023/01/16 12:22:49;;;;;;;1.33;1.23;;;;;;;5.42;96.66;97776.09;4996655;28;20456;-66
2023/01/16 12:25:42;;;;;;;1.35;1.25;;;;;;;5.43;97.20;97778.69;4996664;28;20033;-66
2023/01/16 12:28:34;;;;;;;7.93;1.33;;;;;;;5.42;96.30;97761.25;4995995;28;20431;-66
2023/01/16 12:31:37;;;;;;;1.73;1.23;;;;;;;5.42;95.99;97763.03;5001756;28;20030;-66
2023/01/16 12:34:30;;;;;;;1.30;1.20;;;;;;;5.42;96.56;97753.41;4996409;28;20080;-66
2023/01/16 12:37:28;;;;;;;1.90;1.30;;;;;;;5.42;96.73;97749.94;4996826;28;20035;-66
2023/01/16 12:40:27;;;;;;;1.67;1.45;;;;;;;5.43;96.41;97749.03;4971256;28;20041;-66
2023/01/16 12:43:23;;;;;;;1.77;1.38;;;;;;;5.42;96.57;97742.06;4996072;28;20042;-66
2023/01/16 12:46:15;;;;;;;2.88;1.30;;;;;;;5.45;96.94;97731.56;4996399;28;20034;-66